sensor_id;sensor_type;location;lat;lon;timestamp;P1;durP1;ratioP1;P2;durP2;ratioP2
2257;SDS011;1136;51.574;7.706;2022-11-24T00:01:05;8.33;;;3.50;;
2257;SDS011;1136;51.574;7.706;2022-11-24T00:03:34;14.23;;;4.27;;
2257;SDS011;1136;51.574;7.706;2022-11-24T00:06:02;10.83;;;3.97;;
2257;SDS011;1136;51.574;7.706;2022-11-24T00:08:29;13.10;;;4.07;;
2257;SDS011;1136;51.574;7.706;2022-11-24T00:11:01;8.10;;;3.07;;
2257;SDS011;1136;51.574;7.706;2022-11-24T00:13:28;21.87;;;4.20;;
2257;SDS011;1136;51.574;7.706;2022-11-24T00:16:02;12.77;;;4.30;;
2257;SDS011;1136;51.574;7.706;2022-11-24T00:18:32;13.43;;;3.50;;
2257;SDS011;1136;51.574;7.706;2022-11-24T00:20:59;11.00;;;4.10;;
2257;SDS011;1136;51.574;7.706;2022-11-24T00:23:26;16.13;;;5.23;;
2257;SDS011;1136;51.574;7.706;2022-11-24T00:25:52;12.93;;;4.23;;
2257;SDS011;1136;51.574;7.706;2022-11-24T00:28:19;10.40;;;3.93;;
2257;SDS011;1136;51.574;7.706;2022-11-24T00:30:45;11.67;;;4.17;;
2257;SDS011;1136;51.574;7.706;2022-11-24T00:33:12;15.13;;;4.17;;
2257;SDS011;1136;51.574;7.706;2022-11-24T00:35:38;17.53;;;4.23;;
2257;SDS011;1136;51.574;7.706;2022-11-24T00:38:05;17.73;;;4.53;;
2257;SDS011;1136;51.574;7.706;2022-11-24T00:40:31;8.57;;;3.50;;
2257;SDS011;1136;51.574;7.706;2022-11-24T00:43:00;13.50;;;4.00;;
2257;SDS011;1136;51.574;7.706;2022-11-24T00:45:26;9.97;;;4.10;;
2257;SDS011;1136;51.574;7.706;2022-11-24T00:47:53;7.00;;;3.80;;
2257;SDS011;1136;51.574;7.706;2022-11-24T00:50:19;16.17;;;5.40;;
2257;SDS011;1136;51.574;7.706;2022-11-24T00:52:46;13.90;;;3.77;;
2257;SDS011;1136;51.574;7.706;2022-11-24T00:55:13;14.23;;;4.43;;
2257;SDS011;1136;51.574;7.706;2022-11-24T00:57:39;12.47;;;3.67;;
2257;SDS011;1136;51.574;7.706;2022-11-24T01:00:06;11.60;;;4.57;;
2257;SDS011;1136;51.574;7.706;2022-11-24T01:02:33;21.87;;;7.50;;
2257;SDS011;1136;51.574;7.706;2022-11-24T01:05:00;15.80;;;4.83;;
2257;SDS011;1136;51.574;7.706;2022-11-24T01:07:28;14.63;;;4.00;;
2257;SDS011;1136;51.574;7.706;2022-11-24T01:09:55;12.00;;;4.73;;
2257;SDS011;1136;51.574;7.706;2022-11-24T01:12:22;14.73;;;5.10;;
2257;SDS011;1136;51.574;7.706;2022-11-24T01:14:48;8.40;;;4.30;;
2257;SDS011;1136;51.574;7.706;2022-11-24T01:17:15;11.13;;;3.43;;
2257;SDS011;1136;51.574;7.706;2022-11-24T01:19:41;13.10;;;4.27;;
2257;SDS011;1136;51.574;7.706;2022-11-24T01:22:08;14.17;;;3.90;;
2257;SDS011;1136;51.574;7.706;2022-11-24T01:24:34;12.43;;;3.87;;
2257;SDS011;1136;51.574;7.706;2022-11-24T01:27:02;11.23;;;3.70;;
2257;SDS011;1136;51.574;7.706;2022-11-24T01:29:29;13.30;;;3.83;;
2257;SDS011;1136;51.574;7.706;2022-11-24T01:31:55;12.27;;;4.30;;
2257;SDS011;1136;51.574;7.706;2022-11-24T01:34:22;12.63;;;4.60;;
2257;SDS011;1136;51.574;7.706;2022-11-24T01:36:48;14.37;;;3.83;;
2257;SDS011;1136;51.574;7.706;2022-11-24T01:39:15;17.03;;;4.53;;
2257;SDS011;1136;51.574;7.706;2022-11-24T01:41:41;10.00;;;4.40;;
2257;SDS011;1136;51.574;7.706;2022-11-24T01:46:48;9.63;;;3.77;;
2257;SDS011;1136;51.574;7.706;2022-11-24T01:49:29;14.37;;;4.17;;
2257;SDS011;1136;51.574;7.706;2022-11-24T01:52:10;17.47;;;4.43;;
2257;SDS011;1136;51.574;7.706;2022-11-24T01:54:41;15.17;;;4.60;;
2257;SDS011;1136;51.574;7.706;2022-11-24T01:59:58;13.93;;;4.50;;
2257;SDS011;1136;51.574;7.706;2022-11-24T02:02:31;13.13;;;6.93;;
2257;SDS011;1136;51.574;7.706;2022-11-24T02:04:59;17.97;;;5.77;;
2257;SDS011;1136;51.574;7.706;2022-11-24T02:07:29;13.47;;;4.70;;
2257;SDS011;1136;51.574;7.706;2022-11-24T02:10:03;13.67;;;4.50;;
2257;SDS011;1136;51.574;7.706;2022-11-24T02:12:32;13.33;;;5.87;;
2257;SDS011;1136;51.574;7.706;2022-11-24T02:14:59;16.17;;;5.37;;
2257;SDS011;1136;51.574;7.706;2022-11-24T02:17:25;13.87;;;5.00;;
2257;SDS011;1136;51.574;7.706;2022-11-24T02:19:59;17.07;;;6.20;;
2257;SDS011;1136;51.574;7.706;2022-11-24T02:27:57;12.80;;;3.20;;
2257;SDS011;1136;51.574;7.706;2022-11-24T02:30:24;18.40;;;5.90;;
2257;SDS011;1136;51.574;7.706;2022-11-24T02:32:51;23.07;;;5.97;;
2257;SDS011;1136;51.574;7.706;2022-11-24T02:35:18;11.23;;;3.93;;
2257;SDS011;1136;51.574;7.706;2022-11-24T02:37:45;12.37;;;5.33;;
2257;SDS011;1136;51.574;7.706;2022-11-24T02:40:13;13.60;;;5.00;;
2257;SDS011;1136;51.574;7.706;2022-11-24T02:42:41;7.50;;;4.80;;
2257;SDS011;1136;51.574;7.706;2022-11-24T02:45:09;21.57;;;6.20;;
2257;SDS011;1136;51.574;7.706;2022-11-24T02:47:36;12.13;;;4.83;;
2257;SDS011;1136;51.574;7.706;2022-11-24T02:50:03;16.30;;;5.13;;
2257;SDS011;1136;51.574;7.706;2022-11-24T02:52:30;15.67;;;5.20;;
2257;SDS011;1136;51.574;7.706;2022-11-24T02:54:56;10.90;;;3.80;;
2257;SDS011;1136;51.574;7.706;2022-11-24T02:57:23;13.07;;;4.73;;
2257;SDS011;1136;51.574;7.706;2022-11-24T02:59:49;7.37;;;3.20;;
2257;SDS011;1136;51.574;7.706;2022-11-24T03:02:16;10.40;;;4.47;;
2257;SDS011;1136;51.574;7.706;2022-11-24T03:04:42;13.47;;;5.07;;
2257;SDS011;1136;51.574;7.706;2022-11-24T03:07:09;12.47;;;4.53;;
2257;SDS011;1136;51.574;7.706;2022-11-24T03:09:36;10.23;;;4.23;;
2257;SDS011;1136;51.574;7.706;2022-11-24T03:12:03;6.33;;;4.00;;
2257;SDS011;1136;51.574;7.706;2022-11-24T03:14:29;16.67;;;4.20;;
2257;SDS011;1136;51.574;7.706;2022-11-24T03:16:56;9.93;;;4.07;;
2257;SDS011;1136;51.574;7.706;2022-11-24T03:19:22;16.83;;;3.80;;
2257;SDS011;1136;51.574;7.706;2022-11-24T03:21:49;22.77;;;5.00;;
2257;SDS011;1136;51.574;7.706;2022-11-24T03:24:15;10.97;;;3.70;;
2257;SDS011;1136;51.574;7.706;2022-11-24T03:26:42;8.13;;;3.90;;
2257;SDS011;1136;51.574;7.706;2022-11-24T03:29:08;11.90;;;4.53;;
2257;SDS011;1136;51.574;7.706;2022-11-24T03:31:35;10.90;;;3.80;;
2257;SDS011;1136;51.574;7.706;2022-11-24T03:34:01;11.00;;;3.60;;
2257;SDS011;1136;51.574;7.706;2022-11-24T03:36:28;9.87;;;4.10;;
2257;SDS011;1136;51.574;7.706;2022-11-24T03:38:54;14.40;;;3.20;;
2257;SDS011;1136;51.574;7.706;2022-11-24T03:41:21;9.20;;;3.37;;
2257;SDS011;1136;51.574;7.706;2022-11-24T03:43:48;18.37;;;3.80;;
2257;SDS011;1136;51.574;7.706;2022-11-24T03:46:14;13.63;;;3.90;;
2257;SDS011;1136;51.574;7.706;2022-11-24T03:48:41;12.73;;;5.07;;
2257;SDS011;1136;51.574;7.706;2022-11-24T03:51:08;13.90;;;5.40;;
2257;SDS011;1136;51.574;7.706;2022-11-24T03:53:34;9.80;;;5.13;;
2257;SDS011;1136;51.574;7.706;2022-11-24T03:56:01;10.93;;;5.00;;
2257;SDS011;1136;51.574;7.706;2022-11-24T03:58:28;14.80;;;5.73;;
2257;SDS011;1136;51.574;7.706;2022-11-24T04:00:55;9.90;;;6.50;;
2257;SDS011;1136;51.574;7.706;2022-11-24T04:03:22;11.87;;;6.07;;
2257;SDS011;1136;51.574;7.706;2022-11-24T04:05:49;17.23;;;6.43;;
2257;SDS011;1136;51.574;7.706;2022-11-24T04:08:16;9.70;;;4.20;;
2257;SDS011;1136;51.574;7.706;2022-11-24T04:10:43;10.73;;;4.40;;
2257;SDS011;1136;51.574;7.706;2022-11-24T04:13:11;10.87;;;4.87;;
2257;SDS011;1136;51.574;7.706;2022-11-24T04:15:39;15.60;;;5.20;;
2257;SDS011;1136;51.574;7.706;2022-11-24T04:18:06;11.83;;;4.70;;
2257;SDS011;1136;51.574;7.706;2022-11-24T04:20:34;13.90;;;4.27;;
2257;SDS011;1136;51.574;7.706;2022-11-24T04:23:00;10.43;;;3.90;;
2257;SDS011;1136;51.574;7.706;2022-11-24T04:25:27;10.60;;;3.90;;
2257;SDS011;1136;51.574;7.706;2022-11-24T04:27:54;11.40;;;4.73;;
2257;SDS011;1136;51.574;7.706;2022-11-24T04:30:22;15.37;;;5.73;;
2257;SDS011;1136;51.574;7.706;2022-11-24T04:32:49;18.20;;;4.40;;
2257;SDS011;1136;51.574;7.706;2022-11-24T04:35:16;8.83;;;4.07;;
2257;SDS011;1136;51.574;7.706;2022-11-24T04:37:43;8.60;;;4.10;;
2257;SDS011;1136;51.574;7.706;2022-11-24T04:40:09;14.50;;;5.30;;
2257;SDS011;1136;51.574;7.706;2022-11-24T04:42:36;14.53;;;5.70;;
2257;SDS011;1136;51.574;7.706;2022-11-24T04:45:03;12.80;;;4.40;;
2257;SDS011;1136;51.574;7.706;2022-11-24T04:47:31;17.57;;;4.60;;
2257;SDS011;1136;51.574;7.706;2022-11-24T04:49:58;12.53;;;4.30;;
2257;SDS011;1136;51.574;7.706;2022-11-24T04:52:25;17.67;;;3.40;;
2257;SDS011;1136;51.574;7.706;2022-11-24T04:54:52;14.63;;;3.63;;
2257;SDS011;1136;51.574;7.706;2022-11-24T04:57:20;21.83;;;4.27;;
2257;SDS011;1136;51.574;7.706;2022-11-24T04:59:48;19.37;;;4.40;;
2257;SDS011;1136;51.574;7.706;2022-11-24T05:02:15;11.30;;;3.90;;
2257;SDS011;1136;51.574;7.706;2022-11-24T05:04:42;15.60;;;4.03;;
2257;SDS011;1136;51.574;7.706;2022-11-24T05:07:10;22.40;;;5.37;;
2257;SDS011;1136;51.574;7.706;2022-11-24T05:09:43;10.47;;;3.13;;
2257;SDS011;1136;51.574;7.706;2022-11-24T05:12:30;19.20;;;4.50;;
2257;SDS011;1136;51.574;7.706;2022-11-24T05:14:57;17.37;;;4.23;;
2257;SDS011;1136;51.574;7.706;2022-11-24T05:17:32;14.70;;;4.10;;
2257;SDS011;1136;51.574;7.706;2022-11-24T05:19:59;14.40;;;4.50;;
2257;SDS011;1136;51.574;7.706;2022-11-24T05:22:27;17.00;;;4.50;;
2257;SDS011;1136;51.574;7.706;2022-11-24T05:24:54;9.73;;;3.57;;
2257;SDS011;1136;51.574;7.706;2022-11-24T05:27:20;13.13;;;5.30;;
2257;SDS011;1136;51.574;7.706;2022-11-24T05:29:47;17.27;;;5.00;;
2257;SDS011;1136;51.574;7.706;2022-11-24T05:32:14;13.47;;;5.07;;
2257;SDS011;1136;51.574;7.706;2022-11-24T05:34:40;18.53;;;8.80;;
2257;SDS011;1136;51.574;7.706;2022-11-24T05:37:07;16.03;;;6.70;;
2257;SDS011;1136;51.574;7.706;2022-11-24T05:39:34;15.63;;;6.90;;
2257;SDS011;1136;51.574;7.706;2022-11-24T05:42:02;17.07;;;8.00;;
2257;SDS011;1136;51.574;7.706;2022-11-24T05:44:50;25.60;;;7.03;;
2257;SDS011;1136;51.574;7.706;2022-11-24T05:47:18;15.90;;;5.57;;
2257;SDS011;1136;51.574;7.706;2022-11-24T05:49:45;22.53;;;6.57;;
2257;SDS011;1136;51.574;7.706;2022-11-24T05:52:11;17.33;;;6.00;;
2257;SDS011;1136;51.574;7.706;2022-11-24T05:54:38;14.87;;;5.37;;
2257;SDS011;1136;51.574;7.706;2022-11-24T05:57:04;16.47;;;5.50;;
2257;SDS011;1136;51.574;7.706;2022-11-24T05:59:31;27.50;;;5.97;;
2257;SDS011;1136;51.574;7.706;2022-11-24T06:01:58;20.17;;;4.67;;
2257;SDS011;1136;51.574;7.706;2022-11-24T06:04:25;20.77;;;4.73;;
2257;SDS011;1136;51.574;7.706;2022-11-24T06:06:51;22.70;;;5.07;;
2257;SDS011;1136;51.574;7.706;2022-11-24T06:09:18;18.10;;;4.60;;
2257;SDS011;1136;51.574;7.706;2022-11-24T06:11:45;14.23;;;4.60;;
2257;SDS011;1136;51.574;7.706;2022-11-24T06:14:12;16.93;;;4.10;;
2257;SDS011;1136;51.574;7.706;2022-11-24T06:16:39;15.53;;;4.13;;
2257;SDS011;1136;51.574;7.706;2022-11-24T06:19:06;16.90;;;5.30;;
2257;SDS011;1136;51.574;7.706;2022-11-24T06:21:32;16.23;;;5.17;;
2257;SDS011;1136;51.574;7.706;2022-11-24T06:23:59;13.83;;;4.43;;
2257;SDS011;1136;51.574;7.706;2022-11-24T06:26:25;14.37;;;3.77;;
2257;SDS011;1136;51.574;7.706;2022-11-24T06:28:52;10.03;;;4.70;;
2257;SDS011;1136;51.574;7.706;2022-11-24T06:31:19;22.50;;;4.57;;
2257;SDS011;1136;51.574;7.706;2022-11-24T06:33:46;16.90;;;5.37;;
2257;SDS011;1136;51.574;7.706;2022-11-24T06:36:13;13.60;;;4.47;;
2257;SDS011;1136;51.574;7.706;2022-11-24T06:38:40;23.30;;;6.70;;
2257;SDS011;1136;51.574;7.706;2022-11-24T06:41:08;16.43;;;5.03;;
2257;SDS011;1136;51.574;7.706;2022-11-24T06:43:37;19.90;;;4.77;;
2257;SDS011;1136;51.574;7.706;2022-11-24T06:46:03;13.53;;;5.37;;
2257;SDS011;1136;51.574;7.706;2022-11-24T06:48:30;14.43;;;4.03;;
2257;SDS011;1136;51.574;7.706;2022-11-24T06:50:57;18.77;;;4.53;;
2257;SDS011;1136;51.574;7.706;2022-11-24T06:53:34;17.53;;;5.00;;
2257;SDS011;1136;51.574;7.706;2022-11-24T06:56:05;10.73;;;4.50;;
2257;SDS011;1136;51.574;7.706;2022-11-24T06:58:41;15.60;;;4.53;;
2257;SDS011;1136;51.574;7.706;2022-11-24T07:01:15;15.63;;;4.93;;
2257;SDS011;1136;51.574;7.706;2022-11-24T07:03:43;17.00;;;5.07;;
2257;SDS011;1136;51.574;7.706;2022-11-24T07:06:10;15.23;;;4.67;;
2257;SDS011;1136;51.574;7.706;2022-11-24T07:08:36;16.00;;;6.13;;
2257;SDS011;1136;51.574;7.706;2022-11-24T07:11:07;13.47;;;5.20;;
2257;SDS011;1136;51.574;7.706;2022-11-24T07:13:34;17.07;;;4.53;;
2257;SDS011;1136;51.574;7.706;2022-11-24T07:18:44;23.03;;;5.73;;
2257;SDS011;1136;51.574;7.706;2022-11-24T07:21:12;16.30;;;5.63;;
2257;SDS011;1136;51.574;7.706;2022-11-24T07:23:39;16.70;;;9.07;;
2257;SDS011;1136;51.574;7.706;2022-11-24T07:26:06;20.13;;;4.30;;
2257;SDS011;1136;51.574;7.706;2022-11-24T07:28:33;18.33;;;5.53;;
2257;SDS011;1136;51.574;7.706;2022-11-24T07:31:08;18.93;;;6.37;;
2257;SDS011;1136;51.574;7.706;2022-11-24T07:33:36;15.03;;;6.03;;
2257;SDS011;1136;51.574;7.706;2022-11-24T07:36:04;27.17;;;6.20;;
2257;SDS011;1136;51.574;7.706;2022-11-24T07:38:32;18.77;;;6.03;;
2257;SDS011;1136;51.574;7.706;2022-11-24T07:40:59;19.77;;;5.97;;
2257;SDS011;1136;51.574;7.706;2022-11-24T07:43:27;13.30;;;5.90;;
2257;SDS011;1136;51.574;7.706;2022-11-24T07:45:55;21.00;;;5.40;;
2257;SDS011;1136;51.574;7.706;2022-11-24T07:48:22;17.33;;;6.10;;
2257;SDS011;1136;51.574;7.706;2022-11-24T07:50:49;18.07;;;6.47;;
2257;SDS011;1136;51.574;7.706;2022-11-24T07:53:21;21.80;;;6.20;;
2257;SDS011;1136;51.574;7.706;2022-11-24T07:55:57;14.57;;;5.47;;
2257;SDS011;1136;51.574;7.706;2022-11-24T07:58:26;13.47;;;5.40;;
2257;SDS011;1136;51.574;7.706;2022-11-24T08:00:58;14.70;;;4.87;;
2257;SDS011;1136;51.574;7.706;2022-11-24T08:03:24;9.37;;;4.40;;
2257;SDS011;1136;51.574;7.706;2022-11-24T08:05:54;12.83;;;4.07;;
2257;SDS011;1136;51.574;7.706;2022-11-24T08:08:42;11.90;;;5.27;;
2257;SDS011;1136;51.574;7.706;2022-11-24T08:11:10;13.37;;;4.10;;
2257;SDS011;1136;51.574;7.706;2022-11-24T08:13:37;13.63;;;3.50;;
2257;SDS011;1136;51.574;7.706;2022-11-24T08:16:05;6.70;;;3.10;;
2257;SDS011;1136;51.574;7.706;2022-11-24T08:18:33;12.57;;;3.30;;
2257;SDS011;1136;51.574;7.706;2022-11-24T08:21:01;11.90;;;4.40;;
2257;SDS011;1136;51.574;7.706;2022-11-24T08:23:27;9.00;;;3.07;;
2257;SDS011;1136;51.574;7.706;2022-11-24T08:25:54;9.67;;;3.60;;
2257;SDS011;1136;51.574;7.706;2022-11-24T08:28:22;11.43;;;3.10;;
2257;SDS011;1136;51.574;7.706;2022-11-24T08:30:49;19.50;;;3.50;;
2257;SDS011;1136;51.574;7.706;2022-11-24T08:33:16;8.43;;;3.47;;
2257;SDS011;1136;51.574;7.706;2022-11-24T08:35:42;9.40;;;2.70;;
2257;SDS011;1136;51.574;7.706;2022-11-24T08:38:09;7.93;;;2.80;;
2257;SDS011;1136;51.574;7.706;2022-11-24T08:40:36;8.37;;;3.10;;
2257;SDS011;1136;51.574;7.706;2022-11-24T08:43:02;10.43;;;3.37;;
2257;SDS011;1136;51.574;7.706;2022-11-24T08:45:29;9.67;;;2.40;;
2257;SDS011;1136;51.574;7.706;2022-11-24T08:47:56;11.47;;;3.07;;
2257;SDS011;1136;51.574;7.706;2022-11-24T08:50:23;5.03;;;2.47;;
2257;SDS011;1136;51.574;7.706;2022-11-24T08:52:51;9.47;;;2.20;;
2257;SDS011;1136;51.574;7.706;2022-11-24T08:55:19;2.90;;;1.43;;
2257;SDS011;1136;51.574;7.706;2022-11-24T08:57:45;3.30;;;1.60;;
2257;SDS011;1136;51.574;7.706;2022-11-24T09:00:12;5.87;;;1.80;;
2257;SDS011;1136;51.574;7.706;2022-11-24T09:02:39;3.20;;;2.13;;
2257;SDS011;1136;51.574;7.706;2022-11-24T09:05:07;4.60;;;2.60;;
2257;SDS011;1136;51.574;7.706;2022-11-24T09:07:54;3.90;;;2.20;;
2257;SDS011;1136;51.574;7.706;2022-11-24T09:10:20;5.57;;;2.47;;
2257;SDS011;1136;51.574;7.706;2022-11-24T09:12:48;4.23;;;1.90;;
2257;SDS011;1136;51.574;7.706;2022-11-24T09:15:16;2.63;;;1.63;;
2257;SDS011;1136;51.574;7.706;2022-11-24T09:17:45;3.60;;;1.70;;
2257;SDS011;1136;51.574;7.706;2022-11-24T09:20:11;3.90;;;2.20;;
2257;SDS011;1136;51.574;7.706;2022-11-24T09:22:38;5.57;;;2.10;;
2257;SDS011;1136;51.574;7.706;2022-11-24T09:25:06;4.37;;;1.80;;
2257;SDS011;1136;51.574;7.706;2022-11-24T09:27:33;2.70;;;1.80;;
2257;SDS011;1136;51.574;7.706;2022-11-24T09:30:00;4.17;;;1.90;;
2257;SDS011;1136;51.574;7.706;2022-11-24T09:32:28;3.30;;;1.93;;
2257;SDS011;1136;51.574;7.706;2022-11-24T09:34:55;7.40;;;1.83;;
2257;SDS011;1136;51.574;7.706;2022-11-24T09:37:22;14.20;;;1.67;;
2257;SDS011;1136;51.574;7.706;2022-11-24T09:39:55;6.43;;;2.60;;
2257;SDS011;1136;51.574;7.706;2022-11-24T09:45:06;5.70;;;2.30;;
2257;SDS011;1136;51.574;7.706;2022-11-24T09:47:43;2.87;;;1.73;;
2257;SDS011;1136;51.574;7.706;2022-11-24T09:50:19;3.63;;;1.60;;
2257;SDS011;1136;51.574;7.706;2022-11-24T09:52:53;3.80;;;2.10;;
2257;SDS011;1136;51.574;7.706;2022-11-24T10:01:17;8.07;;;1.97;;
2257;SDS011;1136;51.574;7.706;2022-11-24T10:03:52;4.73;;;2.37;;
2257;SDS011;1136;51.574;7.706;2022-11-24T10:20:11;6.43;;;2.10;;
2257;SDS011;1136;51.574;7.706;2022-11-24T10:28:16;3.63;;;1.70;;
2257;SDS011;1136;51.574;7.706;2022-11-24T10:30:43;8.53;;;2.97;;
2257;SDS011;1136;51.574;7.706;2022-11-24T10:35:54;5.67;;;2.77;;
2257;SDS011;1136;51.574;7.706;2022-11-24T10:39:09;7.77;;;3.00;;
2257;SDS011;1136;51.574;7.706;2022-11-24T10:44:18;7.43;;;3.60;;
2257;SDS011;1136;51.574;7.706;2022-11-24T10:46:45;4.90;;;2.43;;
2257;SDS011;1136;51.574;7.706;2022-11-24T10:49:14;10.80;;;2.80;;
2257;SDS011;1136;51.574;7.706;2022-11-24T10:54:31;7.87;;;3.57;;
2257;SDS011;1136;51.574;7.706;2022-11-24T10:56:58;10.93;;;4.00;;
2257;SDS011;1136;51.574;7.706;2022-11-24T10:59:33;9.20;;;3.50;;
2257;SDS011;1136;51.574;7.706;2022-11-24T11:07:48;12.50;;;3.70;;
2257;SDS011;1136;51.574;7.706;2022-11-24T11:10:19;9.50;;;4.00;;
2257;SDS011;1136;51.574;7.706;2022-11-24T11:12:57;5.37;;;3.13;;
2257;SDS011;1136;51.574;7.706;2022-11-24T11:15:25;9.10;;;4.60;;
2257;SDS011;1136;51.574;7.706;2022-11-24T11:17:58;8.40;;;4.07;;
2257;SDS011;1136;51.574;7.706;2022-11-24T11:22:59;8.50;;;3.23;;
2257;SDS011;1136;51.574;7.706;2022-11-24T11:25:32;7.60;;;3.63;;
2257;SDS011;1136;51.574;7.706;2022-11-24T11:28:10;8.13;;;3.47;;
2257;SDS011;1136;51.574;7.706;2022-11-24T11:30:56;6.27;;;3.20;;
2257;SDS011;1136;51.574;7.706;2022-11-24T11:33:53;6.77;;;3.43;;
2257;SDS011;1136;51.574;7.706;2022-11-24T11:36:43;11.33;;;4.53;;
2257;SDS011;1136;51.574;7.706;2022-11-24T11:39:54;6.97;;;3.63;;
2257;SDS011;1136;51.574;7.706;2022-11-24T11:42:06;9.77;;;3.13;;
2257;SDS011;1136;51.574;7.706;2022-11-24T11:44:36;11.30;;;3.70;;
2257;SDS011;1136;51.574;7.706;2022-11-24T11:47:40;14.23;;;4.57;;
2257;SDS011;1136;51.574;7.706;2022-11-24T11:50:16;9.07;;;3.83;;
2257;SDS011;1136;51.574;7.706;2022-11-24T11:55:37;6.07;;;3.20;;
2257;SDS011;1136;51.574;7.706;2022-11-24T12:06:51;11.03;;;4.27;;
2257;SDS011;1136;51.574;7.706;2022-11-24T12:12:25;10.10;;;3.67;;
2257;SDS011;1136;51.574;7.706;2022-11-24T12:23:15;8.27;;;3.47;;
2257;SDS011;1136;51.574;7.706;2022-11-24T12:26:20;12.17;;;3.80;;
2257;SDS011;1136;51.574;7.706;2022-11-24T12:28:52;12.10;;;3.70;;
2257;SDS011;1136;51.574;7.706;2022-11-24T12:45:21;15.23;;;5.10;;
2257;SDS011;1136;51.574;7.706;2022-11-24T12:50:46;9.30;;;3.50;;
2257;SDS011;1136;51.574;7.706;2022-11-24T12:56:11;9.33;;;3.20;;
2257;SDS011;1136;51.574;7.706;2022-11-24T13:04:06;12.33;;;4.33;;
2257;SDS011;1136;51.574;7.706;2022-11-24T13:09:15;6.33;;;3.50;;
2257;SDS011;1136;51.574;7.706;2022-11-24T13:11:46;9.10;;;3.40;;
2257;SDS011;1136;51.574;7.706;2022-11-24T13:14:20;8.00;;;4.00;;
2257;SDS011;1136;51.574;7.706;2022-11-24T13:16:57;6.07;;;3.17;;
2257;SDS011;1136;51.574;7.706;2022-11-24T13:19:44;10.13;;;3.27;;
2257;SDS011;1136;51.574;7.706;2022-11-24T13:22:16;9.00;;;3.07;;
2257;SDS011;1136;51.574;7.706;2022-11-24T13:25:02;9.37;;;4.20;;
2257;SDS011;1136;51.574;7.706;2022-11-24T13:27:38;8.00;;;3.10;;
2257;SDS011;1136;51.574;7.706;2022-11-24T13:46:59;4.00;;;3.60;;
2257;SDS011;1136;51.574;7.706;2022-11-24T13:49:36;9.70;;;3.07;;
2257;SDS011;1136;51.574;7.706;2022-11-24T13:55:02;11.90;;;3.43;;
2257;SDS011;1136;51.574;7.706;2022-11-24T13:57:54;6.87;;;3.50;;
2257;SDS011;1136;51.574;7.706;2022-11-24T14:03:20;16.23;;;3.93;;
2257;SDS011;1136;51.574;7.706;2022-11-24T14:05:50;12.73;;;3.27;;
2257;SDS011;1136;51.574;7.706;2022-11-24T14:08:23;6.47;;;3.27;;
2257;SDS011;1136;51.574;7.706;2022-11-24T14:10:52;8.90;;;3.60;;
2257;SDS011;1136;51.574;7.706;2022-11-24T14:18:38;6.20;;;3.80;;
2257;SDS011;1136;51.574;7.706;2022-11-24T14:26:36;8.87;;;4.20;;
2257;SDS011;1136;51.574;7.706;2022-11-24T14:31:32;14.50;;;3.80;;
2257;SDS011;1136;51.574;7.706;2022-11-24T14:36:37;11.47;;;3.40;;
2257;SDS011;1136;51.574;7.706;2022-11-24T14:39:05;9.60;;;2.97;;
2257;SDS011;1136;51.574;7.706;2022-11-24T14:41:32;10.87;;;3.10;;
2257;SDS011;1136;51.574;7.706;2022-11-24T14:50:04;8.93;;;3.27;;
2257;SDS011;1136;51.574;7.706;2022-11-24T14:52:34;6.93;;;3.13;;
2257;SDS011;1136;51.574;7.706;2022-11-24T14:55:01;8.37;;;3.27;;
2257;SDS011;1136;51.574;7.706;2022-11-24T14:57:47;12.27;;;4.00;;
2257;SDS011;1136;51.574;7.706;2022-11-24T15:00:16;8.40;;;3.40;;
2257;SDS011;1136;51.574;7.706;2022-11-24T15:02:51;11.93;;;4.20;;
2257;SDS011;1136;51.574;7.706;2022-11-24T15:05:20;7.30;;;4.20;;
2257;SDS011;1136;51.574;7.706;2022-11-24T15:07:48;10.33;;;4.20;;
2257;SDS011;1136;51.574;7.706;2022-11-24T15:10:22;12.60;;;4.33;;
2257;SDS011;1136;51.574;7.706;2022-11-24T15:12:59;9.20;;;4.33;;
2257;SDS011;1136;51.574;7.706;2022-11-24T15:15:29;9.27;;;4.63;;
2257;SDS011;1136;51.574;7.706;2022-11-24T15:18:00;9.43;;;4.47;;
2257;SDS011;1136;51.574;7.706;2022-11-24T15:23:12;7.40;;;4.03;;
2257;SDS011;1136;51.574;7.706;2022-11-24T15:25:45;9.93;;;5.17;;
2257;SDS011;1136;51.574;7.706;2022-11-24T15:28:12;12.83;;;4.77;;
2257;SDS011;1136;51.574;7.706;2022-11-24T15:30:39;11.53;;;4.90;;
2257;SDS011;1136;51.574;7.706;2022-11-24T15:33:12;11.50;;;5.03;;
2257;SDS011;1136;51.574;7.706;2022-11-24T15:35:40;15.60;;;5.20;;
2257;SDS011;1136;51.574;7.706;2022-11-24T15:38:07;17.77;;;5.77;;
2257;SDS011;1136;51.574;7.706;2022-11-24T15:40:35;9.80;;;5.30;;
2257;SDS011;1136;51.574;7.706;2022-11-24T15:43:05;10.60;;;4.53;;
2257;SDS011;1136;51.574;7.706;2022-11-24T15:45:58;12.03;;;5.03;;
2257;SDS011;1136;51.574;7.706;2022-11-24T15:48:25;10.47;;;4.93;;
2257;SDS011;1136;51.574;7.706;2022-11-24T15:50:52;12.90;;;4.60;;
2257;SDS011;1136;51.574;7.706;2022-11-24T15:53:30;6.23;;;4.43;;
2257;SDS011;1136;51.574;7.706;2022-11-24T15:56:02;12.30;;;6.07;;
2257;SDS011;1136;51.574;7.706;2022-11-24T15:58:32;15.30;;;5.40;;
2257;SDS011;1136;51.574;7.706;2022-11-24T16:00:59;13.30;;;6.03;;
2257;SDS011;1136;51.574;7.706;2022-11-24T16:03:26;13.37;;;5.93;;
2257;SDS011;1136;51.574;7.706;2022-11-24T16:06:13;13.17;;;5.90;;
2257;SDS011;1136;51.574;7.706;2022-11-24T16:08:49;10.70;;;5.70;;
2257;SDS011;1136;51.574;7.706;2022-11-24T16:11:15;15.37;;;5.40;;
2257;SDS011;1136;51.574;7.706;2022-11-24T16:13:42;16.63;;;6.60;;
2257;SDS011;1136;51.574;7.706;2022-11-24T16:16:16;13.03;;;5.07;;
2257;SDS011;1136;51.574;7.706;2022-11-24T16:18:43;12.60;;;5.27;;
2257;SDS011;1136;51.574;7.706;2022-11-24T16:21:11;10.13;;;4.67;;
2257;SDS011;1136;51.574;7.706;2022-11-24T16:23:37;16.37;;;5.57;;
2257;SDS011;1136;51.574;7.706;2022-11-24T16:26:04;13.00;;;5.10;;
2257;SDS011;1136;51.574;7.706;2022-11-24T16:28:31;15.77;;;4.70;;
2257;SDS011;1136;51.574;7.706;2022-11-24T16:30:57;15.80;;;5.50;;
2257;SDS011;1136;51.574;7.706;2022-11-24T16:33:24;8.03;;;4.93;;
2257;SDS011;1136;51.574;7.706;2022-11-24T16:35:50;12.83;;;5.33;;
2257;SDS011;1136;51.574;7.706;2022-11-24T16:38:20;13.10;;;6.30;;
2257;SDS011;1136;51.574;7.706;2022-11-24T16:40:53;20.70;;;5.90;;
2257;SDS011;1136;51.574;7.706;2022-11-24T16:43:21;11.33;;;6.43;;
2257;SDS011;1136;51.574;7.706;2022-11-24T16:46:14;15.27;;;6.47;;
2257;SDS011;1136;51.574;7.706;2022-11-24T16:48:42;12.63;;;5.27;;
2257;SDS011;1136;51.574;7.706;2022-11-24T16:51:10;9.80;;;5.20;;
2257;SDS011;1136;51.574;7.706;2022-11-24T16:53:37;15.63;;;6.37;;
2257;SDS011;1136;51.574;7.706;2022-11-24T16:56:04;10.17;;;5.53;;
2257;SDS011;1136;51.574;7.706;2022-11-24T16:58:31;13.40;;;6.27;;
2257;SDS011;1136;51.574;7.706;2022-11-24T17:01:04;14.63;;;6.10;;
2257;SDS011;1136;51.574;7.706;2022-11-24T17:03:33;15.93;;;6.80;;
2257;SDS011;1136;51.574;7.706;2022-11-24T17:06:03;18.17;;;6.90;;
2257;SDS011;1136;51.574;7.706;2022-11-24T17:08:32;17.40;;;7.00;;
2257;SDS011;1136;51.574;7.706;2022-11-24T17:11:04;16.77;;;7.90;;
2257;SDS011;1136;51.574;7.706;2022-11-24T17:13:31;16.73;;;6.50;;
2257;SDS011;1136;51.574;7.706;2022-11-24T17:16:01;17.77;;;6.83;;
2257;SDS011;1136;51.574;7.706;2022-11-24T17:18:32;14.20;;;5.20;;
2257;SDS011;1136;51.574;7.706;2022-11-24T17:20:59;16.67;;;5.60;;
2257;SDS011;1136;51.574;7.706;2022-11-24T17:23:34;12.60;;;6.30;;
2257;SDS011;1136;51.574;7.706;2022-11-24T17:26:01;22.53;;;6.97;;
2257;SDS011;1136;51.574;7.706;2022-11-24T17:28:28;10.80;;;5.53;;
2257;SDS011;1136;51.574;7.706;2022-11-24T17:30:55;12.80;;;6.03;;
2257;SDS011;1136;51.574;7.706;2022-11-24T17:33:21;15.30;;;5.40;;
2257;SDS011;1136;51.574;7.706;2022-11-24T17:35:48;16.77;;;5.43;;
2257;SDS011;1136;51.574;7.706;2022-11-24T17:38:14;13.43;;;5.63;;
2257;SDS011;1136;51.574;7.706;2022-11-24T17:40:45;16.07;;;4.87;;
2257;SDS011;1136;51.574;7.706;2022-11-24T17:43:12;13.93;;;5.50;;
2257;SDS011;1136;51.574;7.706;2022-11-24T17:45:39;16.50;;;6.50;;
2257;SDS011;1136;51.574;7.706;2022-11-24T17:48:06;9.77;;;6.57;;
2257;SDS011;1136;51.574;7.706;2022-11-24T17:50:32;13.20;;;7.40;;
2257;SDS011;1136;51.574;7.706;2022-11-24T17:52:59;23.23;;;8.50;;
2257;SDS011;1136;51.574;7.706;2022-11-24T17:55:26;13.80;;;7.23;;